Time;durP1;ratioP1;P1;durP2;ratioP2;P2;SDS_P1;SDS_P2;PMS_P1;PMS_P2;Temp;Humidity;BMP_temperature;BMP_pressure;BME280_temperature;BME280_humidity;BME280_pressure;Samples;Min_cycle;Max_cycle;Signal;HPM_P1;HPM_P2
2024/01/10 00:02:07;;;;;;;19.30;17.23;;;6.50;79.80;;;;;;12611320;28;20032;-77
2024/01/10 00:08:08;;;;;;;18.17;15.20;;;6.50;79.80;;;;;;12611179;28;20025;-77
2024/01/10 00:14:10;;;;;;;19.45;17.70;;;6.40;79.70;;;;;;12610893;28;20032;-77
2024/01/10 00:20:12;;;;;;;21.38;19.30;;;6.20;80.20;;;;;;12593042;28;20052;-77
2024/01/10 00:26:13;;;;;;;17.65;15.80;;;6.40;80.80;;;;;;12610368;28;20028;-77
2024/01/10 00:32:15;;;;;;;18.38;16.33;;;6.50;80.70;;;;;;12608278;28;20047;-77
2024/01/10 00:38:17;;;;;;;21.25;19.30;;;6.50;81.20;;;;;;12609776;28;20040;-77
2024/01/10 00:44:18;;;;;;;18.33;16.50;;;6.50;81.60;;;;;;12609062;28;20409;-77
2024/01/10 00:50:20;;;;;;;19.40;17.42;;;6.30;81.30;;;;;;12608245;28;20051;-77
2024/01/10 00:56:21;;;;;;;20.73;18.75;;;6.20;81.30;;;;;;12607675;28;20052;-77
2024/01/10 01:02:23;;;;;;;18.75;16.95;;;6.20;81.40;;;;;;12609273;28;20024;-77
2024/01/10 01:08:24;;;;;;;20.67;19.10;;;6.20;81.10;;;;;;12608356;28;20039;-77
2024/01/10 01:14:26;;;;;;;21.75;19.95;;;6.30;81.30;;;;;;12607996;28;20044;-77
2024/01/10 01:20:27;;;;;;;22.02;20.08;;;6.30;81.80;;;;;;12606529;28;20036;-77
2024/01/10 01:26:29;;;;;;;19.90;18.23;;;6.20;81.70;;;;;;12606270;28;20032;-77
2024/01/10 01:32:31;;;;;;;18.33;16.90;;;6.20;81.50;;;;;;12606659;28;20033;-77
2024/01/10 01:38:32;;;;;;;23.25;21.48;;;6.10;81.50;;;;;;12606745;28;20033;-78
2024/01/10 01:44:34;;;;;;;24.42;22.42;;;6.10;81.20;;;;;;12606638;28;20028;-77
2024/01/10 01:50:35;;;;;;;27.13;24.80;;;6.10;81.50;;;;;;12588371;28;20457;-77
2024/01/10 01:56:38;;;;;;;19.88;18.23;;;6.20;81.60;;;;;;12605956;28;20036;-77
2024/01/10 02:02:41;;;;;;;23.98;22.30;;;6.10;81.40;;;;;;12605646;28;20047;-77
2024/01/10 02:08:42;;;;;;;26.02;23.90;;;6.00;81.30;;;;;;12605492;28;20025;-78
2024/01/10 02:14:44;;;;;;;24.50;22.75;;;6.10;82.10;;;;;;12605116;28;20360;-77
2024/01/10 02:20:46;;;;;;;28.83;27.15;;;6.10;81.90;;;;;;12603727;28;20047;-77
2024/01/10 02:26:49;;;;;;;30.02;28.10;;;6.00;82.30;;;;;;12604721;28;20039;-78
2024/01/10 02:32:51;;;;;;;26.10;24.63;;;5.90;82.50;;;;;;12603325;28;20039;-77
2024/01/10 02:38:53;;;;;;;31.85;30.10;;;5.90;82.90;;;;;;12603125;28;20028;-77
2024/01/10 02:44:54;;;;;;;33.75;32.00;;;5.90;82.50;;;;;;12604140;28;20028;-77
2024/01/10 02:50:56;;;;;;;25.90;24.23;;;5.80;82.50;;;;;;12602829;28;20032;-77
2024/01/10 02:56:57;;;;;;;30.05;27.88;;;5.90;82.50;;;;;;12602484;28;20449;-78
2024/01/10 03:02:59;;;;;;;21.65;20.27;;;5.90;82.80;;;;;;12603690;28;20050;-76
2024/01/10 03:09:01;;;;;;;27.33;25.73;;;5.80;82.40;;;;;;12602446;28;20032;-77
2024/01/10 03:15:05;;;;;;;30.10;28.45;;;5.70;82.30;;;;;;12603464;28;20039;-77
2024/01/10 03:21:06;;;;;;;34.65;32.38;;;5.70;82.30;;;;;;12603229;28;20460;-77
2024/01/10 03:27:08;;;;;;;41.53;39.25;;;5.70;82.20;;;;;;12603382;28;20032;-77
2024/01/10 03:33:10;;;;;;;33.17;31.30;;;5.80;82.10;;;;;;12602985;28;20028;-77
2024/01/10 03:39:11;;;;;;;30.10;28.30;;;5.70;82.00;;;;;;12602771;28;20036;-78
2024/01/10 03:45:16;;;;;;;34.08;32.17;;;5.70;81.70;;;;;;12602766;28;20340;-77
2024/01/10 03:51:19;;;;;;;22.65;21.05;;;5.70;82.00;;;;;;12602618;28;20040;-77
2024/01/10 03:57:20;;;;;;;48.70;46.10;;;5.90;82.20;;;;;;12601197;28;20032;-77
2024/01/10 04:03:22;;;;;;;24.45;22.67;;;5.90;81.70;;;;;;12602288;28;20051;-77
2024/01/10 04:09:24;;;;;;;23.88;22.23;;;6.00;81.50;;;;;;12592524;28;20028;-77
2024/01/10 04:15:25;;;;;;;20.50;19.02;;;6.00;81.20;;;;;;12609761;28;20352;-77
2024/01/10 04:21:27;;;;;;;19.77;18.13;;;5.90;81.00;;;;;;12610548;28;20032;-78
2024/01/10 04:27:29;;;;;;;21.85;19.83;;;6.10;81.20;;;;;;12610330;28;20033;-77
2024/01/10 04:33:30;;;;;;;18.73;17.17;;;6.00;81.20;;;;;;12608876;28;20037;-77
2024/01/10 04:39:32;;;;;;;17.25;15.55;;;6.20;82.20;;;;;;12609789;28;20357;-77
2024/01/10 04:45:34;;;;;;;15.40;13.77;;;6.20;81.50;;;;;;12608432;28;20035;-77
2024/01/10 04:51:36;;;;;;;13.25;10.85;;;6.40;81.60;;;;;;12609314;28;20326;-75
2024/01/10 04:57:38;;;;;;;10.82;8.93;;;6.50;81.50;;;;;;12608833;28;20035;-78
2024/01/10 05:03:39;;;;;;;13.93;10.52;;;6.40;81.20;;;;;;12608652;28;20028;-77
2024/01/10 05:09:41;;;;;;;11.93;9.70;;;6.40;81.50;;;;;;12608451;28;20345;-77
2024/01/10 05:15:42;;;;;;;13.27;10.60;;;6.60;81.50;;;;;;12606856;28;20353;-77
2024/01/10 05:21:44;;;;;;;16.70;12.00;;;6.60;81.10;;;;;;12607704;28;20036;-77
2024/01/10 05:27:46;;;;;;;13.98;10.32;;;6.70;81.10;;;;;;12607419;28;20040;-75
2024/01/10 05:33:47;;;;;;;12.23;9.95;;;6.80;81.80;;;;;;12606005;28;20025;-77
2024/01/10 05:39:49;;;;;;;13.90;11.93;;;6.90;81.60;;;;;;12606875;28;20051;-75
2024/01/10 05:45:51;;;;;;;14.73;11.60;;;6.80;81.20;;;;;;12606576;28;20322;-77
2024/01/10 05:51:52;;;;;;;14.73;11.27;;;6.80;80.90;;;;;;12606415;28;20043;-77
2024/01/10 05:57:54;;;;;;;19.40;17.75;;;6.70;81.00;;;;;;12605815;28;20024;-77
2024/01/10 06:03:56;;;;;;;11.05;8.52;;;6.80;80.70;;;;;;12605719;28;20055;-78
2024/01/10 06:09:57;;;;;;;12.90;9.88;;;6.80;80.50;;;;;;12605485;28;20032;-78
2024/01/10 06:16:00;;;;;;;16.48;9.43;;;6.90;80.70;;;;;;12603900;28;20052;-77
2024/01/10 06:22:11;;;;;;;12.27;9.75;;;6.80;80.50;;;;;;12604946;28;20444;-78
2024/01/10 06:28:14;;;;;;;12.57;9.70;;;6.70;80.40;;;;;;12604079;28;20033;-77
2024/01/10 06:34:17;;;;;;;12.30;8.30;;;6.80;80.40;;;;;;12605071;28;20431;-75
2024/01/10 06:40:21;;;;;;;15.35;14.10;;;6.90;80.10;;;;;;12604295;28;20044;-76
2024/01/10 06:46:23;;;;;;;11.80;9.07;;;6.80;79.90;;;;;;12602967;28;20035;-76
2024/01/10 06:52:27;;;;;;;13.20;10.88;;;6.90;80.40;;;;;;12604074;28;20059;-76
2024/01/10 06:58:31;;;;;;;15.18;10.20;;;6.90;80.70;;;;;;12571693;22;20053;-76
2024/01/10 07:04:37;;;;;;;9.35;6.93;;;6.70;80.40;;;;;;12553831;28;20033;-76
2024/01/10 07:10:39;;;;;;;9.75;7.05;;;6.70;80.70;;;;;;12536274;28;20037;-76
2024/01/10 07:16:45;;;;;;;15.75;10.02;;;6.70;81.00;;;;;;12553933;28;20029;-76
2024/01/10 07:22:49;;;;;;;14.27;12.23;;;6.90;81.30;;;;;;12551990;28;20457;-76
2024/01/10 07:28:52;;;;;;;9.77;6.60;;;6.90;81.10;;;;;;12553351;28;20059;-77
2024/01/10 07:34:58;;;;;;;9.20;6.40;;;7.00;81.60;;;;;;12553190;28;20401;-76
2024/01/10 07:41:02;;;;;;;7.82;5.50;;;7.10;81.80;;;;;;12556260;28;20033;-76
2024/01/10 07:47:07;;;;;;;10.45;7.25;;;7.10;82.20;;;;;;12562486;28;20357;-76
2024/01/10 07:53:10;;;;;;;10.43;7.78;;;7.10;81.90;;;;;;12561269;28;20045;-76
2024/01/10 07:59:14;;;;;;;10.32;6.70;;;7.20;82.00;;;;;;12561911;28;20032;-76
2024/01/10 08:05:16;;;;;;;8.70;7.10;;;7.00;82.20;;;;;;12561647;28;20033;-76
2024/01/10 08:11:19;;;;;;;8.55;6.38;;;7.10;82.50;;;;;;12561403;28;20036;-77
2024/01/10 08:17:23;;;;;;;10.85;7.30;;;7.00;82.50;;;;;;12555375;28;20032;-76
2024/01/10 08:23:24;;;;;;;11.93;6.85;;;7.10;82.80;;;;;;12558028;28;20033;-76
2024/01/10 08:29:31;;;;;;;11.88;7.68;;;7.00;83.10;;;;;;12560464;28;20043;-76
2024/01/10 08:35:32;;;;;;;9.52;7.07;;;7.10;83.10;;;;;;12560268;28;20036;-76
2024/01/10 08:41:36;;;;;;;15.27;9.10;;;7.10;83.30;;;;;;12559464;28;20029;-75
2024/01/10 08:47:38;;;;;;;12.05;10.23;;;7.20;83.70;;;;;;12523000;28;20029;-75
2024/01/10 08:53:41;;;;;;;12.82;9.25;;;7.30;83.40;;;;;;12509524;28;20465;-75
2024/01/10 08:59:43;;;;;;;14.75;12.20;;;7.60;83.40;;;;;;12508478;28;20045;-75
2024/01/10 09:05:44;;;;;;;33.00;30.70;;;7.80;82.90;;;;;;12510039;28;20029;-75
2024/01/10 09:12:03;;;;;;;16.92;15.40;;;7.80;82.50;;;;;;12508842;28;20037;-75
2024/01/10 09:18:06;;;;;;;23.50;18.37;;;7.90;82.90;;;;;;12524150;28;20361;-75
2024/01/10 09:24:10;;;;;;;17.05;15.40;;;7.90;83.30;;;;;;12523926;28;20032;-75
2024/01/10 09:30:14;;;;;;;17.38;15.55;;;7.70;83.70;;;;;;12508268;28;20037;-75
2024/01/10 09:36:16;;;;;;;20.15;18.15;;;7.70;84.10;;;;;;12524001;28;20038;-75
2024/01/10 09:42:18;;;;;;;16.58;15.00;;;7.70;84.20;;;;;;12508303;28;20037;-74
2024/01/10 09:48:20;;;;;;;12.65;11.32;;;7.60;84.20;;;;;;12507328;28;20029;-74
2024/01/10 09:54:25;;;;;;;12.73;11.52;;;7.50;83.60;;;;;;12507103;28;20044;-74
2024/01/10 10:00:51;;;;;;;12.50;11.30;;;7.40;84.30;;;;;;12505721;28;20335;-74
2024/01/10 10:07:01;;;;;;;11.85;10.00;;;7.30;84.60;;;;;;12521283;28;20033;-75
2024/01/10 10:13:02;;;;;;;13.30;11.80;;;7.50;84.50;;;;;;12506238;28;20025;-75
2024/01/10 10:19:05;;;;;;;12.45;9.60;;;7.60;84.10;;;;;;12504943;28;20358;-74
2024/01/10 10:25:07;;;;;;;11.52;10.18;;;7.50;83.00;;;;;;12521123;28;20040;-74
2024/01/10 10:31:09;;;;;;;12.07;10.07;;;7.20;83.90;;;;;;12504305;28;20037;-75
2024/01/10 10:37:11;;;;;;;11.20;9.95;;;7.20;84.50;;;;;;12520587;28;20350;-73
2024/01/10 10:43:14;;;;;;;14.48;11.48;;;7.20;83.60;;;;;;12503720;28;20049;-72
2024/01/10 10:49:18;;;;;;;14.85;11.00;;;7.20;84.10;;;;;;12504027;28;20364;-73
2024/01/10 10:55:20;;;;;;;16.40;15.00;;;7.20;83.90;;;;;;12504568;28;20362;-73
2024/01/10 11:01:24;;;;;;;11.52;9.43;;;7.40;84.00;;;;;;12504226;28;20029;-73
2024/01/10 11:07:27;;;;;;;12.75;11.43;;;7.50;84.60;;;;;;12504504;28;20355;-73
2024/01/10 11:13:55;;;;;;;12.57;11.38;;;7.70;85.00;;;;;;12505152;28;20033;-73
2024/01/10 11:20:40;;;;;;;15.30;14.00;;;7.80;83.90;;;;;;12514393;28;20354;-72
2024/01/10 11:26:42;;;;;;;19.17;17.30;;;8.00;84.40;;;;;;12513278;28;20254;-73
2024/01/10 11:32:44;;;;;;;42.10;39.63;;;8.10;84.40;;;;;;12512611;28;20037;-73
2024/01/10 11:38:53;;;;;;;49.83;46.85;;;8.20;84.90;;;;;;12513183;28;20456;-73
2024/01/10 11:44:54;;;;;;;;;;;8.30;84.20;;;;;;12529124;28;20025;-73
2024/01/10 11:50:58;;;;;;;52.40;49.45;;;8.50;85.10;;;;;;12512822;28;19909;-73
2024/01/10 11:57:01;;;;;;;49.28;46.55;;;8.70;83.60;;;;;;12512279;28;20041;-73
2024/01/10 12:03:03;;;;;;;80.75;76.28;;;8.40;83.50;;;;;;12512030;28;20060;-74
2024/01/10 12:09:08;;;;;;;47.47;44.60;;;8.50;83.80;;;;;;12511783;28;20041;-73
2024/01/10 12:15:11;;;;;;;71.72;68.13;;;8.60;84.30;;;;;;12554880;28;20345;-73
2024/01/10 12:21:13;;;;;;;28.45;26.65;;;8.40;83.20;;;;;;12560241;28;20040;-73
2024/01/10 12:27:20;;;;;;;52.17;49.22;;;8.40;84.40;;;;;;12560005;28;20017;-73
2024/01/10 12:33:25;;;;;;;60.35;57.22;;;8.60;85.10;;;;;;12560417;28;20361;-73
2024/01/10 12:39:31;;;;;;;27.85;25.75;;;8.60;84.60;;;;;;12559834;28;20065;-73
2024/01/10 12:45:33;;;;;;;42.53;40.13;;;8.50;84.00;;;;;;12559713;28;20037;-74
2024/01/10 12:51:39;;;;;;;25.58;23.88;;;8.50;84.20;;;;;;12558243;28;20037;-73
2024/01/10 12:57:41;;;;;;;36.92;34.70;;;8.70;84.00;;;;;;12559271;28;20036;-73
2024/01/10 13:03:43;;;;;;;48.35;45.63;;;8.80;84.30;;;;;;12558968;28;20340;-73
2024/01/10 13:09:45;;;;;;;53.78;51.00;;;8.70;82.60;;;;;;12540872;28;20045;-75
2024/01/10 13:15:46;;;;;;;49.05;46.50;;;8.40;83.60;;;;;;12557153;28;20028;-74
2024/01/10 13:21:48;;;;;;;50.15;47.72;;;8.40;84.00;;;;;;12558130;28;20032;-75
2024/01/10 13:27:53;;;;;;;46.83;44.40;;;8.60;84.10;;;;;;12557892;28;20032;-74
2024/01/10 13:33:55;;;;;;;70.13;66.93;;;8.70;84.40;;;;;;12556658;28;20468;-74
2024/01/10 13:39:59;;;;;;;51.45;48.75;;;8.80;84.30;;;;;;12556148;28;20056;-75
2024/01/10 13:46:01;;;;;;;39.80;37.75;;;8.80;84.00;;;;;;12556980;28;20059;-75
2024/01/10 13:52:03;;;;;;;74.00;70.32;;;9.00;84.80;;;;;;12556614;28;20032;-73
2024/01/10 13:58:05;;;;;;;54.88;51.45;;;9.20;85.20;;;;;;12556380;28;20158;-73
2024/01/10 14:04:06;;;;;;;57.88;54.60;;;9.40;84.80;;;;;;12555983;28;20025;-74
2024/01/10 14:10:10;;;;;;;89.15;84.93;;;9.60;84.80;;;;;;12538217;28;20044;-74
2024/01/10 14:16:12;;;;;;;70.47;66.65;;;9.40;84.60;;;;;;12555546;28;20327;-75
2024/01/10 14:22:14;;;;;;;63.45;59.88;;;9.40;85.60;;;;;;12553891;28;20065;-74
2024/01/10 14:28:15;;;;;;;56.28;53.15;;;9.70;85.50;;;;;;12554840;28;20036;-75
2024/01/10 14:34:18;;;;;;;30.45;28.38;;;9.90;85.50;;;;;;12554822;28;20045;-75
2024/01/10 14:40:23;;;;;;;82.38;78.43;;;10.20;85.30;;;;;;12552432;28;20354;-75
2024/01/10 14:46:25;;;;;;;42.30;39.60;;;10.10;85.40;;;;;;12553357;28;20029;-75
2024/01/10 14:52:26;;;;;;;39.22;36.97;;;10.10;85.40;;;;;;12552175;28;20041;-75
2024/01/10 14:58:28;;;;;;;108.07;103.15;;;9.90;85.60;;;;;;12599194;22;20368;-75
2024/01/10 15:04:31;;;;;;;64.18;60.53;;;9.60;85.60;;;;;;12655909;28;20052;-75
2024/01/10 15:10:33;;;;;;;63.13;59.50;;;9.50;85.70;;;;;;12653843;28;20039;-75
2024/01/10 15:16:35;;;;;;;24.55;22.67;;;9.70;85.30;;;;;;12653732;28;20024;-75
2024/01/10 15:22:38;;;;;;;75.13;71.47;;;9.70;85.10;;;;;;12653357;28;20035;-75
2024/01/10 15:28:39;;;;;;;74.43;70.57;;;9.90;84.90;;;;;;12651945;28;20051;-75
2024/01/10 15:34:41;;;;;;;84.85;80.43;;;9.70;84.20;;;;;;12652072;28;20035;-75
2024/01/10 15:40:43;;;;;;;81.82;77.63;;;9.70;84.00;;;;;;12651979;28;20028;-75
2024/01/10 15:46:44;;;;;;;40.70;38.53;;;9.50;83.50;;;;;;12653059;28;20428;-75
2024/01/10 15:52:48;;;;;;;32.00;29.92;;;9.30;83.30;;;;;;12652884;28;20035;-75
2024/01/10 15:58:51;;;;;;;70.72;67.03;;;9.10;83.30;;;;;;12651444;28;20047;-75
2024/01/10 16:04:53;;;;;;;71.63;68.03;;;9.10;83.30;;;;;;12660286;28;20031;-75
2024/01/10 16:10:55;;;;;;;84.53;80.47;;;8.90;82.90;;;;;;12661772;28;20063;-73
2024/01/10 16:16:56;;;;;;;77.93;74.25;;;8.80;82.70;;;;;;12661448;28;20031;-73
2024/01/10 16:23:00;;;;;;;69.70;66.50;;;8.90;82.30;;;;;;12660669;28;20044;-73
2024/01/10 16:29:03;;;;;;;65.53;62.28;;;8.80;81.80;;;;;;12660739;28;20039;-73
2024/01/10 16:35:05;;;;;;;27.92;25.65;;;8.60;81.60;;;;;;12660424;28;20036;-73
2024/01/10 16:41:07;;;;;;;27.88;26.10;;;8.70;82.10;;;;;;12658937;28;20036;-74
2024/01/10 16:47:12;;;;;;;28.15;26.00;;;8.60;81.70;;;;;;12659944;28;20094;-73
2024/01/10 16:53:14;;;;;;;27.52;25.52;;;8.40;81.50;;;;;;12658605;28;20031;-73
2024/01/10 16:59:16;;;;;;;25.65;23.58;;;8.20;81.40;;;;;;12659247;28;20036;-73
2024/01/10 17:05:33;;;;;;;24.00;22.05;;;8.20;81.40;;;;;;12638967;28;20031;-73
2024/01/10 17:11:42;;;;;;;24.65;22.42;;;8.00;81.40;;;;;;12609108;28;20032;-73
2024/01/10 17:17:44;;;;;;;21.20;19.00;;;8.00;81.40;;;;;;12608364;28;20035;-73
2024/01/10 17:23:45;;;;;;;21.33;18.98;;;7.90;81.40;;;;;;12607855;28;20032;-73
2024/01/10 17:29:47;;;;;;;23.55;21.05;;;7.90;81.50;;;;;;12607696;28;20028;-74
2024/01/10 17:35:48;;;;;;;21.55;19.42;;;7.90;81.30;;;;;;12607410;28;20039;-73
2024/01/10 17:41:50;;;;;;;20.83;18.73;;;7.90;81.00;;;;;;12606935;28;20035;-73
2024/01/10 17:47:52;;;;;;;21.20;16.45;;;7.70;81.00;;;;;;12605590;28;20460;-73
2024/01/10 17:53:56;;;;;;;18.80;14.93;;;7.70;81.00;;;;;;12606467;28;20463;-73
2024/01/10 18:00:12;;;;;;;22.45;15.23;;;7.50;80.90;;;;;;12605934;28;20043;-72
2024/01/10 18:06:17;;;;;;;16.50;13.40;;;7.40;80.80;;;;;;12605682;28;20463;-73
2024/01/10 18:12:19;;;;;;;14.48;12.98;;;7.40;80.80;;;;;;12605537;28;20380;-73
2024/01/10 18:18:21;;;;;;;15.15;13.50;;;7.20;80.90;;;;;;12605014;28;20044;-73
2024/01/10 18:24:25;;;;;;;19.48;15.98;;;7.20;80.90;;;;;;12604419;28;20032;-73
2024/01/10 18:30:33;;;;;;;18.15;13.35;;;7.10;80.80;;;;;;12587295;28;20040;-73
2024/01/10 18:36:36;;;;;;;21.13;12.70;;;7.00;80.90;;;;;;12604597;28;20032;-73
2024/01/10 18:42:39;;;;;;;21.40;19.10;;;7.10;81.00;;;;;;12604398;28;20036;-73
2024/01/10 18:48:41;;;;;;;19.10;16.42;;;7.20;80.90;;;;;;12586520;28;20047;-73
2024/01/10 18:54:43;;;;;;;14.27;11.75;;;7.10;80.80;;;;;;12603961;28;20329;-73
2024/01/10 19:00:45;;;;;;;15.88;12.77;;;7.10;80.80;;;;;;12598880;28;20048;-72
2024/01/10 19:06:47;;;;;;;18.67;13.43;;;7.00;80.70;;;;;;12596842;28;20355;-73
2024/01/10 19:12:51;;;;;;;21.85;13.50;;;6.80;80.90;;;;;;12598097;28;20040;-73
2024/01/10 19:18:59;;;;;;;19.10;14.68;;;6.70;80.80;;;;;;12598363;28;20035;-73
2024/01/10 19:25:02;;;;;;;15.20;11.88;;;6.80;80.70;;;;;;12595883;28;20047;-73
2024/01/10 19:31:04;;;;;;;13.70;11.95;;;6.70;80.70;;;;;;12595978;28;20040;-73
2024/01/10 19:37:07;;;;;;;18.45;13.00;;;6.70;80.70;;;;;;12601875;28;20033;-73
2024/01/10 19:43:22;;;;;;;16.85;14.68;;;6.60;80.60;;;;;;12607070;28;20040;-73
2024/01/10 19:49:24;;;;;;;20.55;12.95;;;6.50;80.50;;;;;;12604050;28;20337;-73
2024/01/10 19:55:26;;;;;;;19.33;13.80;;;6.50;80.60;;;;;;12656545;28;20444;-73
2024/01/10 20:01:27;;;;;;;20.85;14.77;;;6.50;80.60;;;;;;12621248;28;20452;-73
2024/01/10 20:07:28;;;;;;;24.60;19.60;;;6.40;80.50;;;;;;12681775;28;20024;-73
2024/01/10 20:13:30;;;;;;;23.05;18.30;;;6.40;80.60;;;;;;12712805;28;20042;-73
2024/01/10 20:19:32;;;;;;;18.63;16.02;;;6.50;80.50;;;;;;12712276;28;20032;-73
2024/01/10 20:25:36;;;;;;;19.27;17.30;;;6.40;80.50;;;;;;12712032;28;20039;-72
2024/01/10 20:31:38;;;;;;;20.27;18.00;;;6.40;80.40;;;;;;12605831;28;20060;-73
2024/01/10 20:37:40;;;;;;;22.10;18.30;;;6.30;80.50;;;;;;12604400;28;20044;-73
2024/01/10 20:43:42;;;;;;;24.77;22.15;;;6.30;80.60;;;;;;12588127;28;20041;-73
2024/01/10 20:49:43;;;;;;;23.95;21.63;;;6.40;80.60;;;;;;12604140;28;20045;-73
2024/01/10 20:55:45;;;;;;;25.85;23.30;;;6.40;80.70;;;;;;12604418;28;20040;-73
2024/01/10 21:01:47;;;;;;;19.98;18.05;;;6.30;80.60;;;;;;12674335;28;20379;-73
2024/01/10 21:07:49;;;;;;;26.73;24.20;;;6.20;80.60;;;;;;12709726;28;20019;-73
2024/01/10 21:13:51;;;;;;;30.23;27.05;;;6.10;80.50;;;;;;12709021;28;20355;-74
2024/01/10 21:19:53;;;;;;;34.80;31.88;;;5.90;80.60;;;;;;12708517;28;20038;-73
2024/01/10 21:25:55;;;;;;;42.85;39.03;;;5.80;80.80;;;;;;12709519;28;20035;-73
2024/01/10 21:31:56;;;;;;;38.55;34.63;;;5.80;81.00;;;;;;12710018;28;20347;-73
2024/01/10 21:38:08;;;;;;;35.00;31.83;;;5.90;81.00;;;;;;12707940;28;20044;-73
2024/01/10 21:44:11;;;;;;;36.85;33.45;;;5.90;80.70;;;;;;12708859;28;20031;-74
2024/01/10 21:50:13;;;;;;;35.15;32.25;;;6.00;80.70;;;;;;12708542;28;20032;-74
2024/01/10 21:56:14;;;;;;;44.30;40.40;;;5.90;80.70;;;;;;12708183;28;20046;-73
2024/01/10 22:02:16;;;;;;;46.20;41.90;;;5.80;80.70;;;;;;12707041;28;20031;-74
2024/01/10 22:08:18;;;;;;;39.65;36.75;;;5.80;80.50;;;;;;12706325;28;20039;-74
2024/01/10 22:14:20;;;;;;;44.97;41.03;;;5.70;80.60;;;;;;12689080;28;20044;-74
2024/01/10 22:20:22;;;;;;;37.20;34.42;;;5.70;80.70;;;;;;12707233;28;20065;-74
2024/01/10 22:26:24;;;;;;;49.38;45.75;;;5.80;80.70;;;;;;12707157;28;20027;-74
2024/01/10 22:32:25;;;;;;;38.10;34.78;;;5.60;80.70;;;;;;12706828;28;20024;-74
2024/01/10 22:38:27;;;;;;;42.30;39.00;;;5.60;80.40;;;;;;12705586;28;20043;-74
2024/01/10 22:44:28;;;;;;;36.65;33.92;;;5.50;80.30;;;;;;12704409;28;20031;-74
2024/01/10 22:50:49;;;;;;;36.65;33.90;;;5.40;80.40;;;;;;12706086;28;20032;-74
2024/01/10 22:56:50;;;;;;;49.47;46.08;;;5.40;80.20;;;;;;12699023;22;20037;-74
2024/01/10 23:02:53;;;;;;;46.63;43.22;;;5.30;80.20;;;;;;12586971;28;20048;-74
2024/01/10 23:08:54;;;;;;;41.75;38.50;;;5.20;80.30;;;;;;12604628;28;20032;-74
2024/01/10 23:14:57;;;;;;;37.50;34.90;;;5.20;80.30;;;;;;12603654;28;20033;-74
2024/01/10 23:21:01;;;;;;;36.25;33.35;;;5.20;80.20;;;;;;12586137;28;20032;-74
2024/01/10 23:27:03;;;;;;;36.50;33.15;;;5.10;80.50;;;;;;12603712;28;20425;-74
2024/01/10 23:33:06;;;;;;;31.13;28.88;;;5.20;80.30;;;;;;12585902;28;20029;-73
2024/01/10 23:39:07;;;;;;;30.95;28.35;;;5.10;80.20;;;;;;12603874;28;20044;-74
2024/01/10 23:45:09;;;;;;;30.02;27.35;;;5.00;80.30;;;;;;12602549;28;20056;-74
2024/01/10 23:51:10;;;;;;;242.85;232.50;;;5.10;80.20;;;;;;12603501;28;20349;-74
2024/01/10 23:57:12;;;;;;;52.78;49.22;;;5.00;80.10;;;;;;12603155;28;20043;-73
